X  Tanca Dades meteorològiques de l'aviació METAR     EHKD De Kooy Airport
Temperatura
6°C Temperatura
1°C Rosada
71% Humitat



Vent
23 KM/H
14 MPH
6 M/S
12 NUS



330°
NNO
Condicions actuals

Parcialment ennuvolat Parcialment ennuvolat
Pressió 1009.82 (hPa) - 29.82 (inHg)
Visibilitat 6 (milla) - 9.7 (km)
Aeroport
Codi aeroport EHKD

Ubicació: De Kooy Airport
Distància: 34 (km)

Metar:
EHKD 240325Z AUTO 33012KT 280V010 9999 FEW021CB SCT043 BKN056 06/01 Q1010 BLU

Temps: 24-04-2024 05:25 CEST